Portada
METAR-TAF:

METAR-TAF

Aeroports :

Palembang, Indonèsia

latitud: 02-54S, longitud: 104-42E, altitud: 10 m

Observació

L'informe es va fer fa 6 hores i 42 minuts, a les 11:30 UTC
Vent 3 kt del Est
Temperatura 31°C
Humitat 66%
Pressió 1007 hPa
Visibilitat: 6000 m
Escasses núvols a una alçada de 1000 ft

METAR: WIPP 071130Z 08003KT 6000 FEW010 31/24 Q1007 NOSIG

Hora: 01:12 (18:12 UTC)

Pronòstic

L'informe es va fer fa 1 hora i 12 minuts, a les 17:00 UTC
Pronòstic vàlid del 07 a les 18 UTC al 08 a les 18 UTC
Vent 8 kt del Sud-Est
Visibilitat 10 km o més
Núvols disperses a una alçada de 1000 ft
Temporalment
l' 07 a les 21 UTC al 07 a les 24 UTC
Visibilitat: 3000 m
calitja

TAF: WIPP 071700Z 0718/0818 14008KT 9999 SCT010 TEMPO 0721/0724 3000 HZ

Observacions i pronòstics meteorològics de més de 4000 aeroports (METAR i TAF).

Les estacions disponibles són els punts grocs i vermells al mapa.

Posi el ratolí al punt desitjat per veure el nom de l'estació.

Feu clic per veure les observacions i els pronòstics meteorològics.

Per canviar el mapa: feu clic els botons verds amb una creu de color negre per apropar; al botó verd amb un guió per allunyar la imatge; o en les fletxes verdes per a mapes adjacents.


METAR-TAF: